createdAt,value
2018-05-05T00:00:19.260Z,15.40
2018-05-05T00:02:47.356Z,15.30
2018-05-05T00:05:15.339Z,15.30
2018-05-05T00:07:43.393Z,15.20
2018-05-05T00:10:11.380Z,15.10
2018-05-05T00:12:39.334Z,15.00
2018-05-05T00:15:07.350Z,15.00
2018-05-05T00:17:35.793Z,14.80
2018-05-05T00:20:03.668Z,14.80
2018-05-05T00:22:31.349Z,14.80
2018-05-05T00:24:59.191Z,14.60
2018-05-05T00:27:26.880Z,14.50
2018-05-05T00:29:54.591Z,14.40
2018-05-05T00:32:22.436Z,14.30
2018-05-05T00:34:50.275Z,14.20
2018-05-05T00:37:18.358Z,14.10
2018-05-05T00:39:46.352Z,14.10
2018-05-05T00:42:14.099Z,14.10
2018-05-05T00:44:42.632Z,14.10
2018-05-05T00:47:10.555Z,14.00
2018-05-05T00:49:38.737Z,13.90
2018-05-05T00:52:07.040Z,13.70
2018-05-05T00:54:46.993Z,13.80
2018-05-05T00:57:15.077Z,13.70
2018-05-05T00:59:43.829Z,13.60
2018-05-05T01:02:12.207Z,13.70
2018-05-05T01:04:41.590Z,13.40
2018-05-05T01:07:09.450Z,13.40
2018-05-05T01:09:37.259Z,13.40
2018-05-05T01:12:05.171Z,13.30
2018-05-05T01:14:34.236Z,13.20
2018-05-05T01:17:02.334Z,13.20
2018-05-05T01:19:31.654Z,13.10
2018-05-05T01:22:00.429Z,13.00
2018-05-05T01:24:28.828Z,12.90
2018-05-05T01:26:57.504Z,12.90
2018-05-05T01:29:27.918Z,12.80
2018-05-05T01:31:57.174Z,12.80
2018-05-05T01:34:25.880Z,12.70
2018-05-05T01:36:57.258Z,12.70
2018-05-05T01:39:25.541Z,12.60
2018-05-05T01:41:55.043Z,12.60
2018-05-05T01:44:23.621Z,12.60
2018-05-05T01:46:52.795Z,12.60
2018-05-05T01:49:21.404Z,12.50
2018-05-05T01:51:50.924Z,12.40
2018-05-05T01:54:20.488Z,12.30
2018-05-05T01:56:51.283Z,12.30
2018-05-05T01:59:28.653Z,12.30
2018-05-05T02:01:56.799Z,12.30
2018-05-05T02:04:25.837Z,12.20
2018-05-05T02:06:55.070Z,12.10
2018-05-05T02:09:23.288Z,12.20
2018-05-05T02:11:51.926Z,12.20
2018-05-05T02:14:20.515Z,12.10
2018-05-05T02:16:49.876Z,12.10
2018-05-05T02:19:19.930Z,11.90
2018-05-05T02:21:48.205Z,11.90
2018-05-05T02:24:16.664Z,11.90
2018-05-05T02:26:46.342Z,11.80
2018-05-05T02:29:18.340Z,11.80
2018-05-05T02:31:47.100Z,11.90
2018-05-05T02:34:15.736Z,11.90
2018-05-05T02:36:45.051Z,11.70
2018-05-05T02:39:14.162Z,11.70
2018-05-05T02:41:43.654Z,11.70
2018-05-05T02:44:24.752Z,11.70
2018-05-05T02:46:55.223Z,11.70
2018-05-05T02:49:23.233Z,11.70
2018-05-05T02:51:52.076Z,11.60
2018-05-05T02:54:21.039Z,11.50
2018-05-05T02:56:49.804Z,11.50
2018-05-05T02:59:20.066Z,11.40
2018-05-05T03:02:01.702Z,11.40
2018-05-05T03:04:30.146Z,11.30
2018-05-05T03:06:59.031Z,11.30
2018-05-05T03:09:28.149Z,11.30
2018-05-05T03:11:56.317Z,11.40
2018-05-05T03:14:25.062Z,11.50
2018-05-05T03:16:53.343Z,11.30
2018-05-05T03:19:21.387Z,11.30
2018-05-05T03:21:49.549Z,11.30
2018-05-05T03:24:18.428Z,11.20
2018-05-05T03:26:46.600Z,11.30
2018-05-05T03:29:14.653Z,11.20
2018-05-05T03:31:44.748Z,11.20
2018-05-05T03:34:13.393Z,11.10
2018-05-05T03:36:42.695Z,11.00
2018-05-05T03:39:10.905Z,11.10
2018-05-05T03:41:46.199Z,11.00
2018-05-05T03:44:15.299Z,10.90
2018-05-05T03:46:43.173Z,11.00
2018-05-05T03:49:11.725Z,11.00
2018-05-05T03:51:39.770Z,10.90
2018-05-05T03:54:07.801Z,11.00
2018-05-05T03:56:36.202Z,10.90
2018-05-05T03:59:16.595Z,10.80
2018-05-05T04:01:56.333Z,10.80
2018-05-05T04:04:24.762Z,10.80
2018-05-05T04:06:53.916Z,10.80
2018-05-05T04:09:22.832Z,10.80
2018-05-05T04:11:51.207Z,10.80
2018-05-05T04:14:21.629Z,11.00
2018-05-05T04:16:50.511Z,10.90
2018-05-05T04:19:19.546Z,10.80
2018-05-05T04:21:47.807Z,10.80
2018-05-05T04:24:16.091Z,10.80
2018-05-05T04:26:44.410Z,10.90
2018-05-05T04:29:14.221Z,10.90
2018-05-05T04:31:47.667Z,10.90
2018-05-05T04:40:06.957Z,11.10
2018-05-05T04:42:40.741Z,11.00
2018-05-05T04:45:16.847Z,11.10
2018-05-05T04:50:43.568Z,11.20
2018-05-05T04:53:29.170Z,11.40
2018-05-05T04:55:56.767Z,11.40
2018-05-05T04:58:24.325Z,11.50
2018-05-05T05:00:52.654Z,11.60
2018-05-05T05:03:20.368Z,11.60
2018-05-05T05:05:47.954Z,11.60
2018-05-05T05:08:15.531Z,11.70
2018-05-05T05:10:44.000Z,11.70
2018-05-05T05:15:45.859Z,11.90
2018-05-05T05:18:13.517Z,12.00
2018-05-05T05:20:41.043Z,12.00
2018-05-05T05:23:12.445Z,12.00
2018-05-05T05:25:39.969Z,12.10
2018-05-05T05:28:08.357Z,12.10
2018-05-05T05:30:36.894Z,12.10
2018-05-05T05:33:05.219Z,12.20
2018-05-05T05:35:33.606Z,12.20
2018-05-05T05:38:07.161Z,12.30
2018-05-05T05:40:34.773Z,12.30
2018-05-05T05:43:02.587Z,12.30
2018-05-05T05:45:30.155Z,12.30
2018-05-05T05:47:57.691Z,12.30
2018-05-05T05:50:31.829Z,12.40
2018-05-05T06:05:56.582Z,12.50
2018-05-05T06:08:25.507Z,12.70
2018-05-05T06:10:54.154Z,12.70
2018-05-05T06:13:22.378Z,12.80
2018-05-05T06:16:14.110Z,12.80
2018-05-05T06:18:42.504Z,13.00
2018-05-05T06:21:10.229Z,13.00
2018-05-05T06:23:38.536Z,13.00
2018-05-05T06:26:06.603Z,13.10
2018-05-05T06:28:34.380Z,13.20
2018-05-05T06:31:01.965Z,13.20
2018-05-05T06:33:29.539Z,13.20
2018-05-05T06:35:57.212Z,13.20
2018-05-05T06:38:24.710Z,13.40
2018-05-05T06:40:52.699Z,13.40
2018-05-05T06:49:14.147Z,13.40
2018-05-05T06:51:56.054Z,13.50
2018-05-05T06:57:27.255Z,13.70
2018-05-05T06:59:54.832Z,13.90
2018-05-05T07:02:22.528Z,14.00
2018-05-05T07:04:50.089Z,14.30
2018-05-05T07:56:53.400Z,14.80
2018-05-05T07:59:21.032Z,16.20
2018-05-05T08:01:48.540Z,16.40
2018-05-05T08:04:16.060Z,16.50
2018-05-05T08:06:43.593Z,16.70
2018-05-05T08:14:59.033Z,17.10
2018-05-05T09:53:27.668Z,19.70
2018-05-05T09:55:55.215Z,20.00
2018-05-05T09:58:22.982Z,20.10
2018-05-05T10:00:50.643Z,20.10
2018-05-05T10:03:19.228Z,20.20
2018-05-05T10:05:47.011Z,20.20
2018-05-05T10:08:14.680Z,20.20
2018-05-05T10:10:42.198Z,20.20
2018-05-05T10:13:09.845Z,20.30
2018-05-05T10:15:37.491Z,20.50
2018-05-05T10:18:04.981Z,20.50
2018-05-05T10:20:32.492Z,20.50
2018-05-05T10:23:00.318Z,20.60
2018-05-05T10:25:27.877Z,20.60
2018-05-05T10:27:55.380Z,20.80
2018-05-05T10:30:22.904Z,20.90
2018-05-05T10:32:50.398Z,21.00
2018-05-05T10:35:17.941Z,21.10
2018-05-05T10:37:45.577Z,21.20
2018-05-05T10:40:13.130Z,21.30
2018-05-05T10:42:40.705Z,21.30
2018-05-05T10:45:08.206Z,21.40
2018-05-05T10:47:35.731Z,21.40
2018-05-05T10:50:04.173Z,21.30
2018-05-05T10:52:31.694Z,21.30
2018-05-05T10:54:59.186Z,21.40
2018-05-05T10:57:26.700Z,21.40
2018-05-05T10:59:54.380Z,21.30
2018-05-05T11:02:21.901Z,21.50
2018-05-05T11:04:50.280Z,21.90
2018-05-05T11:07:18.594Z,21.90
2018-05-05T11:09:46.114Z,21.90
2018-05-05T11:12:14.390Z,22.30
2018-05-05T11:14:42.671Z,22.50
2018-05-05T11:17:10.262Z,22.40
2018-05-05T11:19:37.766Z,22.60
2018-05-05T11:22:05.357Z,22.80
2018-05-05T11:24:32.857Z,22.90
2018-05-05T11:27:00.377Z,22.90
2018-05-05T11:29:27.872Z,23.00
2018-05-05T11:31:55.494Z,23.00
2018-05-05T11:34:23.002Z,23.00
2018-05-05T11:36:51.482Z,23.30
2018-05-05T11:39:18.973Z,23.30
2018-05-05T11:41:47.255Z,23.60
2018-05-05T11:44:14.918Z,23.60
2018-05-05T11:46:42.443Z,23.80
2018-05-05T11:49:10.008Z,24.10
2018-05-05T11:51:37.581Z,24.20
2018-05-05T11:54:05.079Z,24.20
2018-05-05T11:56:32.583Z,24.30
2018-05-05T11:59:00.166Z,24.30
2018-05-05T12:01:28.485Z,24.40
2018-05-05T12:03:56.014Z,24.30
2018-05-05T12:06:23.768Z,24.60
2018-05-05T12:08:51.312Z,25.00
2018-05-05T12:11:18.840Z,25.30
2018-05-05T12:13:47.322Z,25.60
2018-05-05T12:16:14.913Z,25.50
2018-05-05T12:18:43.215Z,25.70
2018-05-05T12:21:10.702Z,25.60
2018-05-05T12:23:38.241Z,25.80
2018-05-05T12:26:05.752Z,25.70
2018-05-05T12:28:33.253Z,25.60
2018-05-05T12:31:00.815Z,25.80
2018-05-05T12:33:28.322Z,26.00
2018-05-05T12:35:56.299Z,26.10
2018-05-05T12:38:23.802Z,26.00
2018-05-05T12:40:51.954Z,26.00
2018-05-05T12:43:19.461Z,26.00
2018-05-05T12:45:46.993Z,25.80
2018-05-05T12:48:14.481Z,25.80
2018-05-05T12:50:42.107Z,26.00
2018-05-05T12:53:09.610Z,26.10
2018-05-05T12:55:37.110Z,26.20
2018-05-05T12:58:04.637Z,26.40
2018-05-05T13:00:32.896Z,26.40
2018-05-05T13:03:00.406Z,26.30
2018-05-05T13:05:27.946Z,26.50
2018-05-05T13:07:55.599Z,26.50
2018-05-05T13:10:23.885Z,26.20
2018-05-05T13:12:52.260Z,26.10
2018-05-05T13:15:19.809Z,26.20
2018-05-05T13:17:48.095Z,26.10
2018-05-05T13:20:15.616Z,26.00
2018-05-05T13:22:43.227Z,26.20
2018-05-05T13:25:10.746Z,26.30
2018-05-05T13:27:39.115Z,26.70
2018-05-05T13:30:07.529Z,26.90
2018-05-05T13:32:35.025Z,26.90
2018-05-05T13:35:02.555Z,26.70
2018-05-05T13:37:30.036Z,26.40
2018-05-05T13:39:57.617Z,26.20
2018-05-05T13:42:25.219Z,26.20
2018-05-05T13:44:52.749Z,26.20
2018-05-05T13:47:21.133Z,26.60
2018-05-05T13:49:49.396Z,26.70
2018-05-05T13:52:16.905Z,26.70
2018-05-05T13:54:44.471Z,26.70
2018-05-05T13:57:12.098Z,26.60
2018-05-05T13:59:40.364Z,26.00
2018-05-05T14:02:08.788Z,25.90
2018-05-05T14:04:36.365Z,25.90
2018-05-05T14:07:03.869Z,25.90
2018-05-05T14:09:32.148Z,26.20
2018-05-05T14:11:59.698Z,26.20
2018-05-05T14:14:29.047Z,26.50
2018-05-05T14:16:56.565Z,26.50
2018-05-05T14:19:24.090Z,26.60
2018-05-05T14:21:51.655Z,26.50
2018-05-05T14:24:19.193Z,26.50
2018-05-05T14:26:46.718Z,26.50
2018-05-05T14:29:14.404Z,26.50
2018-05-05T14:31:41.915Z,26.50
2018-05-05T14:34:09.430Z,26.60
2018-05-05T14:36:37.058Z,26.40
2018-05-05T14:39:04.650Z,26.30
2018-05-05T14:41:32.165Z,26.50
2018-05-05T14:43:59.727Z,26.70
2018-05-05T14:46:28.018Z,27.00
2018-05-05T14:48:55.547Z,27.00
2018-05-05T14:51:23.262Z,26.90
2018-05-05T14:53:50.816Z,26.80
2018-05-05T14:56:18.327Z,27.30
2018-05-05T14:58:46.149Z,27.50
2018-05-05T15:01:13.642Z,27.70
2018-05-05T15:03:41.910Z,27.40
2018-05-05T15:06:10.275Z,27.50
2018-05-05T15:08:37.858Z,27.40
2018-05-05T15:11:05.372Z,27.30
2018-05-05T15:13:32.979Z,27.30
2018-05-05T15:16:00.531Z,27.30
2018-05-05T15:18:28.095Z,27.80
2018-05-05T15:20:55.705Z,28.10
2018-05-05T15:23:23.207Z,28.20
2018-05-05T15:25:50.730Z,28.20
2018-05-05T15:28:18.415Z,28.10
2018-05-05T15:30:46.705Z,28.10
2018-05-05T15:33:14.231Z,28.00
2018-05-05T15:35:41.744Z,28.00
2018-05-05T15:38:09.324Z,28.00
2018-05-05T15:40:36.894Z,27.90
2018-05-05T15:43:04.524Z,27.50
2018-05-05T15:45:32.048Z,27.40
2018-05-05T15:48:00.503Z,27.20
2018-05-05T15:50:28.033Z,27.10
2018-05-05T15:52:55.653Z,27.10
2018-05-05T15:55:23.954Z,27.00
2018-05-05T15:57:51.449Z,27.00
2018-05-05T16:00:18.959Z,26.90
2018-05-05T16:02:47.271Z,26.40
2018-05-05T16:05:14.783Z,26.30
2018-05-05T16:07:42.268Z,26.20
2018-05-05T16:10:09.796Z,26.10
2018-05-05T16:12:37.327Z,26.10
2018-05-05T16:15:04.893Z,26.00
2018-05-05T16:17:32.445Z,26.10
2018-05-05T16:19:59.932Z,26.20
2018-05-05T16:22:27.465Z,26.10
2018-05-05T16:24:55.731Z,26.10
2018-05-05T16:27:23.385Z,26.00
2018-05-05T16:29:50.889Z,25.90
2018-05-05T16:32:18.442Z,25.70
2018-05-05T16:34:46.015Z,25.60
2018-05-05T16:37:13.539Z,25.50
2018-05-05T16:39:41.838Z,25.20
2018-05-05T16:42:10.111Z,25.10
2018-05-05T16:44:37.619Z,25.10
2018-05-05T16:47:05.156Z,25.00
2018-05-05T16:49:32.745Z,25.00
2018-05-05T16:52:00.300Z,24.90
2018-05-05T16:54:28.620Z,24.80
2018-05-05T16:56:56.185Z,24.80
2018-05-05T16:59:23.685Z,24.70
2018-05-05T17:01:51.944Z,24.50
2018-05-05T17:04:19.499Z,24.50
2018-05-05T17:06:47.015Z,24.50
2018-05-05T17:09:15.322Z,24.50
2018-05-05T17:11:42.833Z,24.40
2018-05-05T17:14:11.156Z,24.50
2018-05-05T17:16:38.654Z,24.40
2018-05-05T17:19:06.185Z,24.40
2018-05-05T17:21:33.680Z,24.40
2018-05-05T17:24:01.216Z,24.30
2018-05-05T17:26:28.773Z,24.30
2018-05-05T17:28:56.300Z,24.30
2018-05-05T17:31:23.793Z,24.30
2018-05-05T17:33:51.338Z,24.30
2018-05-05T17:36:18.845Z,24.20
2018-05-05T17:38:47.121Z,24.00
2018-05-05T17:41:15.399Z,24.00
2018-05-05T17:43:43.715Z,24.00
2018-05-05T17:46:11.218Z,24.00
2018-05-05T17:48:39.488Z,23.90
2018-05-05T17:51:07.002Z,23.80
2018-05-05T17:53:34.511Z,23.80
2018-05-05T17:56:02.050Z,23.70
2018-05-05T17:58:29.569Z,23.80
2018-05-05T18:00:57.092Z,23.80
2018-05-05T18:03:25.407Z,23.70
2018-05-05T18:05:52.922Z,23.70
2018-05-05T18:08:20.430Z,23.70
2018-05-05T18:10:47.949Z,23.60
2018-05-05T18:13:15.500Z,23.50
2018-05-05T18:15:43.773Z,23.40
2018-05-05T18:18:12.081Z,23.40
2018-05-05T18:20:39.584Z,23.30
2018-05-05T18:23:07.290Z,23.30
2018-05-05T18:25:34.806Z,23.30
2018-05-05T18:28:02.313Z,23.20
2018-05-05T18:30:29.824Z,23.10
2018-05-05T18:32:57.344Z,23.10
2018-05-05T18:35:24.875Z,23.00
2018-05-05T18:37:52.447Z,23.00
2018-05-05T18:40:19.983Z,22.80
2018-05-05T18:42:47.534Z,22.80
2018-05-05T18:45:15.175Z,22.70
2018-05-05T18:47:42.631Z,22.70
2018-05-05T18:50:10.115Z,22.60
2018-05-05T18:52:37.754Z,22.50
2018-05-05T18:55:05.256Z,22.30
2018-05-05T18:57:33.091Z,22.10
2018-05-05T19:00:01.393Z,22.00
2018-05-05T19:02:28.941Z,22.10
2018-05-05T19:04:57.217Z,22.00
2018-05-05T19:07:24.713Z,22.00
2018-05-05T19:09:52.408Z,22.00
2018-05-05T19:12:19.952Z,21.90
2018-05-05T19:14:47.464Z,21.80
2018-05-05T19:17:14.985Z,21.70
2018-05-05T19:19:42.527Z,21.60
2018-05-05T19:22:10.034Z,21.40
2018-05-05T19:24:37.535Z,21.20
2018-05-05T19:27:05.904Z,20.80
2018-05-05T19:29:33.434Z,20.80
2018-05-05T19:32:00.973Z,20.70
2018-05-05T19:34:28.621Z,20.60
2018-05-05T19:36:56.904Z,20.20
2018-05-05T19:39:25.175Z,20.20
2018-05-05T19:41:53.452Z,20.00
2018-05-05T19:44:21.714Z,19.80
2018-05-05T19:46:49.408Z,19.80
2018-05-05T19:49:16.847Z,19.70
2018-05-05T19:51:44.384Z,19.70
2018-05-05T19:54:11.935Z,19.60
2018-05-05T19:56:39.744Z,19.50
2018-05-05T19:59:07.232Z,19.40
2018-05-05T20:01:37.388Z,19.30
2018-05-05T20:04:05.749Z,19.20
2018-05-05T20:06:33.362Z,19.00
2018-05-05T20:09:00.875Z,19.00
2018-05-05T20:11:28.441Z,19.00
2018-05-05T20:13:55.938Z,18.90
2018-05-05T20:16:23.473Z,18.70
2018-05-05T20:18:51.021Z,18.60
2018-05-05T20:21:18.559Z,18.60
2018-05-05T20:23:46.077Z,18.50
2018-05-05T20:26:13.629Z,18.50
2018-05-05T20:28:41.142Z,18.40
2018-05-05T20:31:08.644Z,18.30
2018-05-05T20:33:36.195Z,18.20
2018-05-05T20:36:03.700Z,18.20
2018-05-05T20:38:31.193Z,18.00
2018-05-05T20:40:59.555Z,17.90
2018-05-05T20:43:27.878Z,17.80
2018-05-05T20:45:56.224Z,17.80
2018-05-05T20:48:24.486Z,17.90
2018-05-05T20:50:52.085Z,17.90
2018-05-05T20:53:19.605Z,17.90
2018-05-05T20:55:48.121Z,17.80
2018-05-05T20:58:16.861Z,17.80
2018-05-05T21:00:48.482Z,17.70
2018-05-05T21:03:16.114Z,17.60
2018-05-05T21:05:43.636Z,17.60
2018-05-05T21:08:11.125Z,17.60
2018-05-05T21:10:38.983Z,17.50
2018-05-05T21:13:07.697Z,17.60
2018-05-05T21:15:35.224Z,17.60
2018-05-05T21:18:03.609Z,17.50
2018-05-05T21:20:31.998Z,17.40
2018-05-05T21:22:59.553Z,17.40
2018-05-05T21:25:27.111Z,17.40
2018-05-05T21:27:54.807Z,17.40
2018-05-05T21:30:22.351Z,17.30
2018-05-05T21:32:50.574Z,17.40
2018-05-05T21:35:18.869Z,17.30
2018-05-05T21:37:47.266Z,17.30
2018-05-05T21:40:14.900Z,17.30
2018-05-05T21:42:42.408Z,17.20
2018-05-05T21:45:10.262Z,17.30
2018-05-05T21:47:38.605Z,17.20
2018-05-05T21:50:07.070Z,17.10
2018-05-05T21:52:34.635Z,17.00
2018-05-05T21:55:02.252Z,17.10
2018-05-05T21:57:30.068Z,17.10
2018-05-05T21:59:58.545Z,17.00
2018-05-05T22:02:26.895Z,16.90
2018-05-05T22:04:54.572Z,16.80
2018-05-05T22:07:23.057Z,16.80
2018-05-05T22:09:50.635Z,16.80
2018-05-05T22:12:18.175Z,16.80
2018-05-05T22:14:46.707Z,16.80
2018-05-05T22:17:14.533Z,16.80
2018-05-05T22:19:42.045Z,16.80
2018-05-05T22:22:09.751Z,16.70
2018-05-05T22:24:37.279Z,16.70
2018-05-05T22:27:05.178Z,16.60
2018-05-05T22:29:33.552Z,16.40
2018-05-05T22:32:01.225Z,16.40
2018-05-05T22:34:28.781Z,16.40
2018-05-05T22:36:57.279Z,16.50
2018-05-05T22:39:24.801Z,16.50
2018-05-05T22:41:52.840Z,16.30
2018-05-05T22:44:20.617Z,16.10
2018-05-05T22:46:48.145Z,16.00
2018-05-05T22:49:15.697Z,16.00
2018-05-05T22:51:45.049Z,15.90
2018-05-05T22:54:13.088Z,15.70
2018-05-05T22:56:41.488Z,15.50
2018-05-05T22:59:09.069Z,15.50
2018-05-05T23:01:36.847Z,15.50
2018-05-05T23:04:05.563Z,15.50
2018-05-05T23:06:33.133Z,15.50
2018-05-05T23:09:00.762Z,15.50
2018-05-05T23:11:28.382Z,15.50
2018-05-05T23:13:56.068Z,15.50
2018-05-05T23:16:24.386Z,15.50
2018-05-05T23:18:51.979Z,15.50
2018-05-05T23:21:20.529Z,15.50
2018-05-05T23:23:48.240Z,15.50
2018-05-05T23:26:16.576Z,15.40
2018-05-05T23:28:44.082Z,15.40
2018-05-05T23:31:11.836Z,15.40
2018-05-05T23:33:39.645Z,15.30
2018-05-05T23:36:07.148Z,15.20
2018-05-05T23:38:34.748Z,15.20
2018-05-05T23:41:02.260Z,15.20
2018-05-05T23:43:30.919Z,15.10
2018-05-05T23:45:58.561Z,15.00
2018-05-05T23:48:26.085Z,15.00
2018-05-05T23:50:54.453Z,15.00
2018-05-05T23:53:22.090Z,15.00
2018-05-05T23:55:49.638Z,15.10
2018-05-05T23:58:17.172Z,15.10
